Time;durP1;ratioP1;P1;durP2;ratioP2;P2;SDS_P1;SDS_P2;PMS_P1;PMS_P2;Temp;Humidity;BMP_temperature;BMP_pressure;BME280_temperature;BME280_humidity;BME280_pressure;Samples;Min_cycle;Max_cycle;Signal;HPM_P1;HPM_P2
2022/11/11 01:29:20;;;;;;;3.13;1.65;;;;;;;;;;7390502;19;20020;-89
2022/11/11 01:32:29;;;;;;;2.53;1.65;;;;;;;;;;7392378;19;20032;-89
2022/11/11 01:43:11;;;;;;;;;;;;;;;;;;;;;
2022/11/11 01:46:18;;;;;;;2.55;1.38;;;;;;;;;;7399329;19;20039;-90
2022/11/11 01:53:20;;;;;;;;;;;;;;;;;;;;;
2022/11/11 02:00:52;;;;;;;;;;;;;;;;;;;;;
2022/11/11 02:03:43;;;;;;;;;;;;;;;;;;;;;
2022/11/11 02:06:41;;;;;;;;;;;;;;;;;;;;;
2022/11/11 02:09:13;;;;;;;3.30;1.38;;;;;;;;;;7396738;19;20007;-89
2022/11/11 02:14:41;;;;;;;4.78;2.22;;;;;;;;;;7393596;19;20035;-89
2022/11/11 02:17:12;;;;;;;8.45;1.63;;;;;;;;;;7396055;19;20017;-91
2022/11/11 02:20:15;;;;;;;;;;;;;;;;;;;;;
2022/11/11 02:26:39;;;;;;;;;;;;;;;;;;;;;
2022/11/11 02:29:12;;;;;;;1.73;1.38;;;;;;;;;;7394928;19;19999;-90
2022/11/11 02:32:04;;;;;;;;;;;;;;;;;;;;;
2022/11/11 02:35:59;;;;;;;1.85;1.23;;;;;;;;;;7390831;19;20495;-89
2022/11/11 02:41:58;;;;;;;1.40;1.15;;;;;;;;;;7389306;19;20103;-90
2022/11/11 02:44:24;;;;;;;2.17;1.00;;;;;;;;;;7388663;19;20023;-90
2022/11/11 02:46:53;;;;;;;1.45;1.20;;;;;;;;;;7393770;19;20014;-89
2022/11/11 02:49:49;;;;;;;;;;;;;;;;;;;;;
2022/11/11 02:52:52;;;;;;;2.03;1.60;;;;;;;;;;7391693;19;20017;-91
2022/11/11 02:58:33;;;;;;;3.40;1.75;;;;;;;;;;7393741;19;20005;-90
2022/11/11 03:01:11;;;;;;;;;;;;;;;;;;;;;
2022/11/11 03:07:39;;;;;;;1.35;1.25;;;;;;;;;;7392167;19;20035;-91
2022/11/11 03:10:17;;;;;;;;;;;;;;;;;;;;;
2022/11/11 03:13:06;;;;;;;1.40;1.30;;;;;;;;;;7388945;19;20006;-90
2022/11/11 03:15:34;;;;;;;1.40;1.20;;;;;;;;;;7391594;19;20015;-89
2022/11/11 03:18:03;;;;;;;3.85;1.40;;;;;;;;;;7393427;19;20039;-90
2022/11/11 03:23:37;;;;;;;;;;;;;;;;;;7396465;19;20453;-89
2022/11/11 03:26:07;;;;;;;1.25;0.75;;;;;;;;;;7401860;19;19914;-88
2022/11/11 03:28:33;;;;;;;2.53;1.08;;;;;;;;;;7400925;19;20011;-89
2022/11/11 03:30:58;;;;;;;1.63;1.30;;;;;;;;;;7397484;19;20011;-90
2022/11/11 03:33:24;;;;;;;1.77;1.30;;;;;;;;;;7410429;19;20039;-90
2022/11/11 03:35:54;;;;;;;3.15;1.13;;;;;;;;;;7421689;19;20031;-90
2022/11/11 03:38:23;;;;;;;2.45;1.48;;;;;;;;;;7406562;19;20486;-90
2022/11/11 03:40:56;;;;;;;3.88;1.23;;;;;;;;;;7427717;19;20003;-90
2022/11/11 03:43:33;;;;;;;1.92;0.98;;;;;;;;;;7431184;19;19991;-89
2022/11/11 03:46:03;;;;;;;1.17;1.00;;;;;;;;;;7424508;19;21042;-88
2022/11/11 03:48:31;;;;;;;2.28;0.80;;;;;;;;;;7425971;19;19999;-89
2022/11/11 03:51:06;;;;;;;1.23;1.13;;;;;;;;;;7426667;19;20003;-89
2022/11/11 03:54:01;;;;;;;1.27;1.17;;;;;;;;;;7402510;19;20031;-90
2022/11/11 03:56:35;;;;;;;2.10;1.17;;;;;;;;;;7399082;19;20006;-91
2022/11/11 03:59:03;;;;;;;1.30;1.10;;;;;;;;;;7398408;19;20108;-90
2022/11/11 04:29:55;;;;;;;1.88;1.58;;;;;;;;;;7395358;19;20122;-88
2022/11/11 04:32:41;;;;;;;1.98;1.05;;;;;;;;;;7395066;19;20514;-89
2022/11/11 04:35:11;;;;;;;1.38;1.20;;;;;;;;;;7395076;19;20002;-89
2022/11/11 04:37:45;;;;;;;2.60;1.30;;;;;;;;;;7397879;19;20044;-90
2022/11/11 04:43:09;;;;;;;1.55;1.15;;;;;;;;;;7398851;19;20013;-90
2022/11/11 04:45:37;;;;;;;1.50;0.90;;;;;;;;;;7396542;19;20010;-89
2022/11/11 04:48:08;;;;;;;2.45;1.40;;;;;;;;;;7397402;19;20182;-91
2022/11/11 04:50:54;;;;;;;1.50;1.10;;;;;;;;;;7396460;19;20030;-88
2022/11/11 04:53:29;;;;;;;;;;;;;;;;;;;;;
2022/11/11 04:59:14;;;;;;;0.85;0.75;;;;;;;;;;7400955;19;20017;-89
2022/11/11 05:05:12;;;;;;;;;;;;;;;;;;;;;
2022/11/11 05:10:45;;;;;;;3.47;0.90;;;;;;;;;;7421135;19;20041;-90
2022/11/11 05:22:56;;;;;;;2.53;2.03;;;;;;;;;;7406613;19;20025;-88
2022/11/11 05:26:05;;;;;;;1.95;1.75;;;;;;;;;;7395729;19;20293;-91
2022/11/11 05:28:41;;;;;;;2.78;1.45;;;;;;;;;;7390609;19;20521;-91
2022/11/11 06:59:23;;;;;;;0.88;0.80;;;;;;;;;;7392924;19;20044;-88
2022/11/11 07:01:49;;;;;;;1.23;1.00;;;;;;;;;;7394411;19;20378;-86
2022/11/11 07:04:15;;;;;;;1.58;0.65;;;;;;;;;;7390641;19;20007;-88
2022/11/11 07:06:40;;;;;;;1.13;0.90;;;;;;;;;;7386720;19;20007;-88
2022/11/11 07:09:27;;;;;;;;;;;;;;;;;;;;;
2022/11/11 07:11:56;;;;;;;0.95;0.88;;;;;;;;;;7393504;19;19995;-88
2022/11/11 07:14:26;;;;;;;1.10;1.00;;;;;;;;;;7392565;19;20078;-88
2022/11/11 07:16:52;;;;;;;1.20;1.00;;;;;;;;;;7402315;19;20011;-88
2022/11/11 07:19:22;;;;;;;4.22;1.40;;;;;;;;;;7402385;19;20391;-88
2022/11/11 07:21:52;;;;;;;1.40;1.10;;;;;;;;;;7401315;19;20011;-89
2022/11/11 07:24:27;;;;;;;;;;;;;;;;;;;;;
2022/11/11 07:27:06;;;;;;;;;;;;;;;;;;;;;
2022/11/11 07:29:51;;;;;;;;;;;;;;;;;;;;;
2022/11/11 07:32:34;;;;;;;2.58;1.65;;;;;;;;;;7427551;19;20007;-88
2022/11/11 07:35:15;;;;;;;;;;;;;;;;;;;;;
2022/11/11 07:42:20;;;;;;;;;;;;;;;;;;;;;
2022/11/11 07:44:54;;;;;;;;;;;;;;;;;;;;;
2022/11/11 07:47:29;;;;;;;;;;;;;;;;;;;;;
2022/11/11 07:50:34;;;;;;;;;;;;;;;;;;;;;
2022/11/11 07:53:41;;;;;;;;;;;;;;;;;;;;;
2022/11/11 07:56:57;;;;;;;;;;;;;;;;;;;;;
2022/11/11 07:59:55;;;;;;;;;;;;;;;;;;;;;
2022/11/11 08:02:48;;;;;;;;;;;;;;;;;;;;;
2022/11/11 08:05:24;;;;;;;;;;;;;;;;;;;;;
2022/11/11 08:07:50;;;;;;;3.67;1.70;;;;;;;;;;7398373;19;20010;-87
2022/11/11 08:10:25;;;;;;;;;;;;;;;;;;;;;
2022/11/11 08:15:56;;;;;;;;;;;;;;;;;;;;;
2022/11/11 08:18:52;;;;;;;;;;;;;;;;;;;;;
2022/11/11 08:21:45;;;;;;;;;;;;;;;;;;;;;
2022/11/11 08:24:23;;;;;;;;;;;;;;;;;;;;;
2022/11/11 08:27:19;;;;;;;;;;;;;;;;;;;;;
2022/11/11 08:30:27;;;;;;;;;;;;;;;;;;;;;
2022/11/11 08:33:29;;;;;;;1.67;1.30;;;;;;;;;;7398288;19;20010;-92
2022/11/11 08:36:01;;;;;;;2.22;1.23;;;;;;;;;;7400853;19;19999;-89
2022/11/11 08:38:47;;;;;;;0.82;0.82;;;;;;;;;;7405581;19;20548;-88
2022/11/11 08:41:22;;;;;;;2.10;1.13;;;;;;;;;;7398992;19;20022;-89
2022/11/11 08:43:54;;;;;;;2.60;1.55;;;;;;;;;;7395033;19;20009;-91
2022/11/11 08:46:26;;;;;;;2.58;1.58;;;;;;;;;;7397901;19;20010;-88
2022/11/11 08:48:52;;;;;;;1.85;1.30;;;;;;;;;;7397775;19;19998;-88
2022/11/11 08:51:18;;;;;;;2.67;1.63;;;;;;;;;;7397665;19;20431;-89
2022/11/11 08:53:51;;;;;;;1.98;1.27;;;;;;;;;;7394821;19;20074;-90
2022/11/11 08:57:03;;;;;;;2.33;1.35;;;;;;;;;;7398572;19;20100;-89
2022/11/11 08:59:33;;;;;;;1.17;1.08;;;;;;;;;;7401940;19;20010;-92
2022/11/11 09:01:58;;;;;;;2.10;1.50;;;;;;;;;;7404733;19;19999;-90
2022/11/11 09:04:24;;;;;;;1.80;1.50;;;;;;;;;;7402605;19;20017;-90
2022/11/11 09:06:54;;;;;;;1.98;1.35;;;;;;;;;;7404275;19;20006;-93
2022/11/11 09:09:32;;;;;;;;;;;;;;;;;;;;;
2022/11/11 09:11:58;;;;;;;4.63;1.70;;;;;;;;;;7421030;19;20014;-86
2022/11/11 09:14:23;;;;;;;2.13;1.77;;;;;;;;;;7415338;19;20027;-88
2022/11/11 09:16:49;;;;;;;2.08;1.60;;;;;;;;;;7428264;19;20065;-89
2022/11/11 09:19:24;;;;;;;2.35;1.80;;;;;;;;;;7427416;19;20007;-89
2022/11/11 09:21:53;;;;;;;1.92;1.55;;;;;;;;;;7426870;19;20007;-88
2022/11/11 09:24:34;;;;;;;;;;;;;;;;;;;;;
2022/11/11 09:27:09;;;;;;;2.25;1.60;;;;;;;;;;7425715;19;20035;-87
2022/11/11 09:29:34;;;;;;;2.37;1.50;;;;;;;;;;7421909;19;20006;-85
2022/11/11 09:32:09;;;;;;;;;;;;;;;;;;;;;
2022/11/11 09:34:35;;;;;;;1.63;1.45;;;;;;;;;;7390276;19;20357;-85
2022/11/11 09:37:16;;;;;;;;;;;;;;;;;;;;;
2022/11/11 09:39:41;;;;;;;1.73;1.50;;;;;;;;;;7386884;19;20618;-85
2022/11/11 09:42:45;;;;;;;1.83;1.48;;;;;;;;;;7387606;19;20002;-85
2022/11/11 09:45:14;;;;;;;2.53;1.63;;;;;;;;;;7387174;19;20017;-85
2022/11/11 09:47:51;;;;;;;2.92;1.40;;;;;;;;;;7390327;19;20002;-85
2022/11/11 09:50:22;;;;;;;2.00;1.60;;;;;;;;;;7390578;19;20018;-85
2022/11/11 09:52:56;;;;;;;1.42;1.33;;;;;;;;;;7393413;19;20006;-85
2022/11/11 09:55:26;;;;;;;3.30;1.70;;;;;;;;;;7394637;19;20003;-85
2022/11/11 09:58:00;;;;;;;1.85;1.70;;;;;;;;;;7398432;19;20011;-86
2022/11/11 10:00:34;;;;;;;2.47;1.63;;;;;;;;;;7406022;19;20530;-85
2022/11/11 10:03:15;;;;;;;1.60;1.50;;;;;;;;;;7406136;19;20031;-85
2022/11/11 10:05:45;;;;;;;2.10;1.63;;;;;;;;;;7392680;19;20011;-85
2022/11/11 10:08:24;;;;;;;2.50;1.67;;;;;;;;;;7394808;19;20022;-85
2022/11/11 10:10:51;;;;;;;2.08;1.77;;;;;;;;;;7396618;19;20002;-85
2022/11/11 10:13:27;;;;;;;2.53;1.80;;;;;;;;;;7393190;19;20328;-85
2022/11/11 10:15:56;;;;;;;2.67;1.80;;;;;;;;;;7389321;19;20026;-85
2022/11/11 10:18:39;;;;;;;2.65;1.48;;;;;;;;;;7391411;19;20011;-84
2022/11/11 10:21:13;;;;;;;1.95;1.60;;;;;;;;;;7393951;19;20018;-85
2022/11/11 10:23:45;;;;;;;1.75;1.52;;;;;;;;;;7390982;19;20010;-85
2022/11/11 10:26:34;;;;;;;2.47;1.70;;;;;;;;;;7393175;19;20014;-85
2022/11/11 10:29:03;;;;;;;2.38;2.00;;;;;;;;;;7385644;19;20335;-85
2022/11/11 10:31:29;;;;;;;2.63;1.77;;;;;;;;;;7388228;19;20493;-86
2022/11/11 10:34:27;;;;;;;2.22;1.63;;;;;;;;;;7389970;19;20010;-85
2022/11/11 10:36:55;;;;;;;2.33;1.45;;;;;;;;;;7392485;19;20034;-85
2022/11/11 10:39:28;;;;;;;3.15;1.45;;;;;;;;;;7396427;19;20003;-85
2022/11/11 10:41:54;;;;;;;1.50;1.40;;;;;;;;;;7391581;19;20007;-85
2022/11/11 10:44:21;;;;;;;2.45;1.63;;;;;;;;;;7389756;19;20016;-84
2022/11/11 10:46:59;;;;;;;2.05;1.70;;;;;;;;;;7397317;19;20120;-88
2022/11/11 10:49:31;;;;;;;3.17;1.83;;;;;;;;;;7397915;19;21198;-86
2022/11/11 10:52:15;;;;;;;1.60;1.50;;;;;;;;;;7397583;19;20371;-86
2022/11/11 10:54:48;;;;;;;2.95;1.90;;;;;;;;;;7401567;19;20031;-87
2022/11/11 10:57:18;;;;;;;2.63;2.20;;;;;;;;;;7400226;19;20007;-88
2022/11/11 10:59:49;;;;;;;2.38;2.05;;;;;;;;;;7403078;19;20017;-88
2022/11/11 11:02:41;;;;;;;2.47;2.00;;;;;;;;;;7401195;19;20034;-87
2022/11/11 11:05:15;;;;;;;2.13;1.70;;;;;;;;;;7400168;19;20129;-89
2022/11/11 11:07:46;;;;;;;2.05;1.67;;;;;;;;;;7401170;19;20475;-86
2022/11/11 11:10:17;;;;;;;2.40;1.60;;;;;;;;;;7402928;19;20018;-86
2022/11/11 11:13:10;;;;;;;3.90;1.75;;;;;;;;;;7409339;19;20015;-85
2022/11/11 11:15:39;;;;;;;3.55;2.00;;;;;;;;;;7431038;19;20014;-87
2022/11/11 11:18:12;;;;;;;2.28;1.92;;;;;;;;;;7431291;19;20003;-87
2022/11/11 11:20:38;;;;;;;3.60;1.95;;;;;;;;;;7419353;19;20388;-86
2022/11/11 11:23:03;;;;;;;2.08;1.88;;;;;;;;;;7414614;19;20006;-87
2022/11/11 11:25:32;;;;;;;3.42;1.95;;;;;;;;;;7416529;19;20007;-87
2022/11/11 11:28:09;;;;;;;2.33;1.42;;;;;;;;;;7403745;19;20030;-88
2022/11/11 11:30:35;;;;;;;2.33;1.85;;;;;;;;;;7401477;19;20005;-87
2022/11/11 11:33:03;;;;;;;2.47;1.73;;;;;;;;;;7399044;19;20002;-88
2022/11/11 11:35:30;;;;;;;2.17;1.67;;;;;;;;;;7400659;19;20548;-88
2022/11/11 11:37:55;;;;;;;4.30;2.03;;;;;;;;;;7401666;19;20478;-88
2022/11/11 11:40:20;;;;;;;1.75;1.65;;;;;;;;;;7401397;19;20017;-87
2022/11/11 11:42:46;;;;;;;1.67;1.58;;;;;;;;;;7404156;19;19999;-88
2022/11/11 11:45:18;;;;;;;2.22;1.65;;;;;;;;;;7399873;19;20006;-88
2022/11/11 11:47:53;;;;;;;4.25;2.08;;;;;;;;;;7400846;19;20014;-88
2022/11/11 11:50:38;;;;;;;2.17;1.98;;;;;;;;;;7405241;19;20011;-88
2022/11/11 11:53:15;;;;;;;2.00;1.63;;;;;;;;;;7401437;19;20025;-86
2022/11/11 11:55:51;;;;;;;1.80;1.52;;;;;;;;;;7401581;19;20018;-86
2022/11/11 11:58:49;;;;;;;2.40;1.88;;;;;;;;;;7422249;19;20018;-86
2022/11/11 12:01:31;;;;;;;2.42;1.63;;;;;;;;;;7423393;19;20005;-86
2022/11/11 12:04:30;;;;;;;2.90;1.80;;;;;;;;;;7398947;19;20060;-86
2022/11/11 12:07:18;;;;;;;2.58;1.85;;;;;;;;;;7411521;19;20066;-88
2022/11/11 12:10:05;;;;;;;1.90;1.63;;;;;;;;;;7413581;19;20022;-88
2022/11/11 12:12:49;;;;;;;2.75;1.90;;;;;;;;;;7400842;19;20006;-87
2022/11/11 12:15:38;;;;;;;2.50;1.77;;;;;;;;;;7397177;19;20425;-87
2022/11/11 12:18:38;;;;;;;2.53;1.83;;;;;;;;;;7397705;19;20038;-86
2022/11/11 12:21:14;;;;;;;2.10;1.70;;;;;;;;;;7400228;19;20022;-86
2022/11/11 12:23:40;;;;;;;1.77;1.60;;;;;;;;;;7401848;19;20012;-86
2022/11/11 12:26:19;;;;;;;1.80;1.50;;;;;;;;;;7404946;19;20011;-86
2022/11/11 12:29:08;;;;;;;2.60;2.20;;;;;;;;;;7405606;19;20471;-87
2022/11/11 12:31:55;;;;;;;3.03;1.92;;;;;;;;;;7429013;19;20002;-87
2022/11/11 12:34:37;;;;;;;2.15;1.75;;;;;;;;;;7423930;19;20010;-87
2022/11/11 12:37:25;;;;;;;1.75;1.60;;;;;;;;;;7404485;19;20020;-88
2022/11/11 12:40:06;;;;;;;2.75;1.95;;;;;;;;;;7402429;19;20047;-87
2022/11/11 12:42:58;;;;;;;2.78;2.08;;;;;;;;;;7400527;19;20021;-87
2022/11/11 12:45:35;;;;;;;2.45;1.92;;;;;;;;;;7398832;19;20462;-86
2022/11/11 12:48:19;;;;;;;3.40;2.10;;;;;;;;;;7398265;19;20017;-87
2022/11/11 12:51:03;;;;;;;6.57;2.00;;;;;;;;;;7396272;19;20018;-86
2022/11/11 12:53:35;;;;;;;2.60;1.77;;;;;;;;;;7390759;19;20002;-86
2022/11/11 12:56:06;;;;;;;2.22;2.03;;;;;;;;;;7396887;19;20015;-87
2022/11/11 12:59:02;;;;;;;2.03;1.65;;;;;;;;;;7399643;19;19990;-87
2022/11/11 13:01:34;;;;;;;;;;;;;;;;;;7395454;19;19997;-87
2022/11/11 13:04:23;;;;;;;2.10;1.67;;;;;;;;;;7391549;19;19939;-87
2022/11/11 13:06:48;;;;;;;2.65;1.77;;;;;;;;;;7402335;19;20030;-87
2022/11/11 13:09:29;;;;;;;2.40;1.70;;;;;;;;;;7405623;19;20027;-85
2022/11/11 13:12:03;;;;;;;3.60;1.60;;;;;;;;;;7405915;19;20387;-86
2022/11/11 13:14:47;;;;;;;2.15;1.65;;;;;;;;;;7406500;19;20002;-85
2022/11/11 13:17:15;;;;;;;1.48;1.38;;;;;;;;;;7410323;19;20021;-88
2022/11/11 13:20:13;;;;;;;2.08;1.73;;;;;;;;;;7409908;19;20002;-86
2022/11/11 13:22:38;;;;;;;3.85;1.48;;;;;;;;;;7410059;19;20002;-88
2022/11/11 13:25:05;;;;;;;4.45;1.55;;;;;;;;;;7407013;19;20611;-87
2022/11/11 13:27:58;;;;;;;1.52;1.30;;;;;;;;;;7410285;19;20003;-87
2022/11/11 13:30:30;;;;;;;1.85;1.50;;;;;;;;;;7402022;19;19995;-87
2022/11/11 13:33:17;;;;;;;3.40;1.30;;;;;;;;;;7398421;19;20010;-87
2022/11/11 13:35:49;;;;;;;1.50;1.40;;;;;;;;;;7394303;19;20010;-87
2022/11/11 13:38:32;;;;;;;1.85;1.50;;;;;;;;;;7396991;19;20007;-87
2022/11/11 13:41:02;;;;;;;2.08;1.50;;;;;;;;;;7403943;19;20009;-85
2022/11/11 13:43:44;;;;;;;1.95;1.67;;;;;;;;;;7404927;19;20015;-86
2022/11/11 13:46:42;;;;;;;1.35;1.25;;;;;;;;;;7406787;19;20013;-86
2022/11/11 13:49:20;;;;;;;3.05;1.67;;;;;;;;;;7403769;19;20045;-87
2022/11/11 13:51:55;;;;;;;2.15;1.52;;;;;;;;;;7403231;19;20059;-86
2022/11/11 13:54:24;;;;;;;;;;;;;;;;;;7399890;19;20027;-86
2022/11/11 13:56:50;;;;;;;1.88;1.33;;;;;;;;;;7398262;19;19917;-86
2022/11/11 13:59:27;;;;;;;3.00;1.60;;;;;;;;;;7396715;19;20024;-86
2022/11/11 14:02:31;;;;;;;5.93;2.00;;;;;;;;;;7396965;19;20094;-86
2022/11/11 14:05:07;;;;;;;2.85;1.65;;;;;;;;;;7391415;19;20010;-86
2022/11/11 14:07:47;;;;;;;2.55;1.70;;;;;;;;;;7398258;19;20089;-87
2022/11/11 14:10:15;;;;;;;2.10;1.65;;;;;;;;;;7400029;19;20038;-85
2022/11/11 14:13:20;;;;;;;3.50;1.92;;;;;;;;;;7414825;19;20035;-87
2022/11/11 14:15:47;;;;;;;6.38;1.88;;;;;;;;;;7404300;19;20470;-85
2022/11/11 14:18:18;;;;;;;4.68;2.00;;;;;;;;;;7395958;19;19999;-88
2022/11/11 14:20:44;;;;;;;2.13;1.60;;;;;;;;;;7401319;19;20003;-87
2022/11/11 14:23:40;;;;;;;2.72;1.52;;;;;;;;;;7396319;19;20014;-92
2022/11/11 14:32:14;;;;;;;;;;;;;;;;;;;;;
2022/11/11 14:39:03;;;;;;;;;;;;;;;;;;;;;
2022/11/11 14:42:26;;;;;;;;;;;;;;;;;;;;;
2022/11/11 14:52:43;;;;;;;2.22;1.35;;;;;;;;;;7405691;19;19995;-88
2022/11/11 14:55:45;;;;;;;5.20;1.63;;;;;;;;;;7414532;19;20030;-92
2022/11/11 14:58:16;;;;;;;1.98;1.40;;;;;;;;;;7390049;19;20022;-85
2022/11/11 15:00:50;;;;;;;1.83;1.30;;;;;;;;;;7400433;19;20005;-81
2022/11/11 15:03:39;;;;;;;1.73;1.35;;;;;;;;;;7416748;19;20025;-82
2022/11/11 15:06:20;;;;;;;1.23;1.13;;;;;;;;;;7414541;19;20013;-84
2022/11/11 15:09:05;;;;;;;1.60;1.13;;;;;;;;;;7395092;19;20057;-84
2022/11/11 15:11:43;;;;;;;1.48;1.15;;;;;;;;;;7396405;19;20015;-84
2022/11/11 15:14:15;;;;;;;0.98;0.90;;;;;;;;;;7392063;19;20372;-84
2022/11/11 15:16:58;;;;;;;1.42;1.00;;;;;;;;;;7397550;19;20415;-84
2022/11/11 15:19:29;;;;;;;1.02;0.90;;;;;;;;;;7393309;19;20018;-83
2022/11/11 15:22:09;;;;;;;9.07;1.55;;;;;;;;;;7391819;19;20011;-83
2022/11/11 15:24:53;;;;;;;1.90;1.00;;;;;;;;;;7389292;19;20144;-84
2022/11/11 15:27:21;;;;;;;2.17;1.30;;;;;;;;;;7388452;19;20021;-84
2022/11/11 15:30:02;;;;;;;1.08;0.98;;;;;;;;;;7395029;19;20379;-83
2022/11/11 15:33:02;;;;;;;2.95;1.40;;;;;;;;;;7399294;19;20452;-83
2022/11/11 15:35:36;;;;;;;2.85;1.40;;;;;;;;;;7400273;19;20010;-83
2022/11/11 15:38:04;;;;;;;2.25;1.40;;;;;;;;;;7397107;19;20530;-84
2022/11/11 15:40:43;;;;;;;2.38;1.40;;;;;;;;;;7400271;19;20010;-84
2022/11/11 15:43:18;;;;;;;3.03;1.77;;;;;;;;;;7392380;19;20519;-84
2022/11/11 15:45:44;;;;;;;2.92;1.80;;;;;;;;;;7394958;19;20331;-83
2022/11/11 15:48:17;;;;;;;2.72;1.75;;;;;;;;;;7396079;19;20017;-84
2022/11/11 15:50:43;;;;;;;4.30;2.47;;;;;;;;;;7398605;19;20015;-84
2022/11/11 15:53:11;;;;;;;6.25;2.70;;;;;;;;;;7397576;19;20002;-85
2022/11/11 15:55:39;;;;;;;5.60;2.80;;;;;;;;;;7399461;19;20006;-89
2022/11/11 15:58:10;;;;;;;4.13;2.60;;;;;;;;;;7398787;19;20034;-90
2022/11/11 16:00:36;;;;;;;4.30;2.22;;;;;;;;;;7398819;19;20006;-89
2022/11/11 16:03:03;;;;;;;4.68;2.33;;;;;;;;;;7396409;19;20360;-88
2022/11/11 16:05:30;;;;;;;5.90;2.47;;;;;;;;;;7398300;19;19999;-89
2022/11/11 16:08:00;;;;;;;3.75;2.53;;;;;;;;;;7400667;19;20033;-87
2022/11/11 16:10:29;;;;;;;3.20;1.70;;;;;;;;;;7399565;19;20377;-87
2022/11/11 16:13:16;;;;;;;4.75;2.15;;;;;;;;;;7397820;19;20002;-88
2022/11/11 16:15:49;;;;;;;3.78;2.15;;;;;;;;;;7398171;19;20021;-87
2022/11/11 16:18:26;;;;;;;4.65;2.33;;;;;;;;;;7402812;19;20052;-88
2022/11/11 16:21:03;;;;;;;2.83;1.85;;;;;;;;;;7409004;19;20006;-88
2022/11/11 16:23:29;;;;;;;2.92;1.95;;;;;;;;;;7397376;19;20462;-88
2022/11/11 16:25:57;;;;;;;3.03;2.10;;;;;;;;;;7395633;19;20074;-88
2022/11/11 16:28:24;;;;;;;3.00;2.35;;;;;;;;;;7400444;19;19998;-87
2022/11/11 16:30:49;;;;;;;3.33;1.88;;;;;;;;;;7402243;19;20104;-89
2022/11/11 16:33:24;;;;;;;2.55;1.50;;;;;;;;;;7398080;19;20346;-87
2022/11/11 16:35:49;;;;;;;2.72;2.03;;;;;;;;;;7399300;19;20019;-91
2022/11/11 16:38:30;;;;;;;3.40;1.95;;;;;;;;;;7397410;19;20003;-88
2022/11/11 16:40:56;;;;;;;3.97;2.22;;;;;;;;;;7397365;19;20027;-88
2022/11/11 16:43:33;;;;;;;3.33;1.98;;;;;;;;;;7395779;19;20455;-88
2022/11/11 16:46:03;;;;;;;1.75;1.48;;;;;;;;;;7396125;19;20010;-89
2022/11/11 16:48:33;;;;;;;2.97;2.10;;;;;;;;;;7395772;19;19998;-91
2022/11/11 16:51:04;;;;;;;3.53;2.60;;;;;;;;;;7397868;19;20017;-88
2022/11/11 16:53:34;;;;;;;2.75;1.90;;;;;;;;;;7401906;19;20010;-89
2022/11/11 16:56:01;;;;;;;2.15;1.75;;;;;;;;;;7404217;19;20019;-85
2022/11/11 16:58:27;;;;;;;4.72;1.90;;;;;;;;;;7395605;19;20011;-86
2022/11/11 17:01:03;;;;;;;2.67;1.95;;;;;;;;;;7397760;19;20036;-86
2022/11/11 17:03:28;;;;;;;4.22;1.98;;;;;;;;;;7395546;19;20492;-85
2022/11/11 17:06:07;;;;;;;1.98;1.42;;;;;;;;;;7394723;19;20078;-88
2022/11/11 17:08:45;;;;;;;2.22;1.60;;;;;;;;;;7392653;19;20102;-85
2022/11/11 17:11:39;;;;;;;6.28;2.22;;;;;;;;;;7387464;19;20006;-82
2022/11/11 17:14:05;;;;;;;2.28;1.63;;;;;;;;;;7390593;19;20043;-85
2022/11/11 17:16:31;;;;;;;1.92;1.50;;;;;;;;;;7401629;19;20485;-86
2022/11/11 17:18:59;;;;;;;2.58;1.88;;;;;;;;;;7394271;19;20028;-85
2022/11/11 17:21:24;;;;;;;3.25;1.75;;;;;;;;;;7393145;19;20638;-85
2022/11/11 17:23:51;;;;;;;3.97;1.63;;;;;;;;;;7389351;19;20010;-85
2022/11/11 17:26:17;;;;;;;3.38;2.10;;;;;;;;;;7394786;19;20022;-86
2022/11/11 17:28:42;;;;;;;1.52;1.40;;;;;;;;;;7397906;19;20006;-85
2022/11/11 17:31:09;;;;;;;3.67;1.63;;;;;;;;;;7397194;19;20033;-84
2022/11/11 17:33:35;;;;;;;4.70;1.35;;;;;;;;;;7396314;19;20049;-84
2022/11/11 17:36:00;;;;;;;2.00;1.70;;;;;;;;;;7392465;19;20463;-86
2022/11/11 17:38:26;;;;;;;1.52;1.38;;;;;;;;;;7396500;19;20022;-86
2022/11/11 17:40:52;;;;;;;1.95;1.40;;;;;;;;;;7393917;19;20020;-85
2022/11/11 17:43:17;;;;;;;2.17;1.50;;;;;;;;;;7393535;19;20032;-86
2022/11/11 17:45:43;;;;;;;1.40;1.30;;;;;;;;;;7393855;19;20073;-85
2022/11/11 17:48:09;;;;;;;2.33;1.33;;;;;;;;;;7393787;19;20018;-86
2022/11/11 17:50:36;;;;;;;1.92;1.50;;;;;;;;;;7393355;19;20580;-84
2022/11/11 17:53:02;;;;;;;1.60;1.50;;;;;;;;;;7396196;19;20474;-85
2022/11/11 17:55:30;;;;;;;3.38;1.30;;;;;;;;;;7392393;19;20005;-86
2022/11/11 17:57:57;;;;;;;1.58;1.33;;;;;;;;;;7395566;19;20040;-87
2022/11/11 18:00:25;;;;;;;1.92;1.58;;;;;;;;;;7395864;19;20029;-86
2022/11/11 18:02:50;;;;;;;2.78;1.52;;;;;;;;;;7401333;19;20033;-85
2022/11/11 18:05:17;;;;;;;3.28;2.08;;;;;;;;;;7396816;19;20002;-87
2022/11/11 18:07:42;;;;;;;2.35;1.60;;;;;;;;;;7405748;19;20018;-87
2022/11/11 18:10:31;;;;;;;3.70;2.13;;;;;;;;;;7405754;19;20022;-89
2022/11/11 18:12:57;;;;;;;1.67;1.52;;;;;;;;;;7403591;19;20030;-87
2022/11/11 18:15:25;;;;;;;3.35;1.80;;;;;;;;;;7401509;19;20017;-85
2022/11/11 18:17:51;;;;;;;3.28;2.05;;;;;;;;;;7402766;19;20010;-86
2022/11/11 18:20:16;;;;;;;4.07;2.75;;;;;;;;;;7399456;19;20021;-87
2022/11/11 18:22:41;;;;;;;6.15;3.55;;;;;;;;;;7397009;19;20023;-86
2022/11/11 18:25:07;;;;;;;4.28;2.67;;;;;;;;;;7398217;19;20431;-87
2022/11/11 18:27:32;;;;;;;5.32;3.17;;;;;;;;;;7398552;19;20273;-85
2022/11/11 18:29:58;;;;;;;4.60;2.90;;;;;;;;;;7390891;19;20003;-86
2022/11/11 18:32:23;;;;;;;3.03;2.35;;;;;;;;;;7395529;19;20007;-85
2022/11/11 18:34:48;;;;;;;2.65;2.05;;;;;;;;;;7398063;19;20356;-85
2022/11/11 18:37:13;;;;;;;3.75;2.83;;;;;;;;;;7408595;19;20800;-84
2022/11/11 18:39:39;;;;;;;3.53;2.53;;;;;;;;;;7409750;19;20014;-83
2022/11/11 18:42:04;;;;;;;4.47;2.30;;;;;;;;;;7397624;19;20178;-86
2022/11/11 18:44:29;;;;;;;5.47;1.95;;;;;;;;;;7389993;19;20002;-86
2022/11/11 18:46:57;;;;;;;2.63;2.00;;;;;;;;;;7394697;19;20003;-85
2022/11/11 18:49:22;;;;;;;1.90;1.58;;;;;;;;;;7401940;19;20174;-86
2022/11/11 18:51:49;;;;;;;3.85;1.83;;;;;;;;;;7420348;19;20021;-86
2022/11/11 18:54:15;;;;;;;2.60;1.80;;;;;;;;;;7411527;19;20010;-82
2022/11/11 18:56:41;;;;;;;1.98;1.63;;;;;;;;;;7401723;19;20007;-82
2022/11/11 18:59:07;;;;;;;5.05;1.92;;;;;;;;;;7391139;19;20014;-83
2022/11/11 19:01:37;;;;;;;3.42;2.00;;;;;;;;;;7383965;19;20485;-83
2022/11/11 19:04:05;;;;;;;4.20;1.70;;;;;;;;;;7390496;19;20015;-83
2022/11/11 19:06:33;;;;;;;2.85;1.65;;;;;;;;;;7394763;19;20017;-84
2022/11/11 19:09:01;;;;;;;4.93;1.60;;;;;;;;;;7387366;19;20346;-84
2022/11/11 19:11:27;;;;;;;2.50;1.60;;;;;;;;;;7401824;19;20006;-83
2022/11/11 19:13:53;;;;;;;3.20;2.00;;;;;;;;;;7398698;19;20006;-83
2022/11/11 19:16:21;;;;;;;2.63;1.88;;;;;;;;;;7403716;19;20096;-83
2022/11/11 19:18:47;;;;;;;2.83;1.98;;;;;;;;;;7405808;19;20003;-84
2022/11/11 19:21:15;;;;;;;1.77;1.45;;;;;;;;;;7411858;19;20006;-84
2022/11/11 19:23:42;;;;;;;1.75;1.60;;;;;;;;;;7400795;19;20010;-83
2022/11/11 19:26:09;;;;;;;1.48;1.38;;;;;;;;;;7408376;19;20010;-81
2022/11/11 19:28:35;;;;;;;2.95;2.00;;;;;;;;;;7397301;19;20035;-82
2022/11/11 19:31:12;;;;;;;3.00;2.05;;;;;;;;;;7394416;19;20010;-84
2022/11/11 19:33:39;;;;;;;2.65;1.95;;;;;;;;;;7398364;19;20021;-84
2022/11/11 19:36:07;;;;;;;3.70;1.98;;;;;;;;;;7398321;19;20438;-81
2022/11/11 19:38:33;;;;;;;4.47;2.38;;;;;;;;;;7398470;19;20007;-80
2022/11/11 19:41:11;;;;;;;2.22;2.00;;;;;;;;;;7400710;19;20023;-82
2022/11/11 19:43:37;;;;;;;2.42;1.60;;;;;;;;;;7399175;19;20010;-82
2022/11/11 19:46:04;;;;;;;1.35;1.25;;;;;;;;;;7395534;19;20038;-81
2022/11/11 19:48:30;;;;;;;1.88;1.35;;;;;;;;;;7392368;19;20025;-82
2022/11/11 19:50:55;;;;;;;1.98;1.60;;;;;;;;;;7393928;19;20324;-81
2022/11/11 19:53:20;;;;;;;3.13;2.05;;;;;;;;;;7395160;19;20030;-81
2022/11/11 19:56:11;;;;;;;2.88;1.77;;;;;;;;;;7392115;19;20010;-81
2022/11/11 19:58:37;;;;;;;4.35;2.60;;;;;;;;;;7392979;19;20030;-80
2022/11/11 20:01:07;;;;;;;3.35;1.90;;;;;;;;;;7397652;19;20010;-82
2022/11/11 20:03:34;;;;;;;2.67;2.10;;;;;;;;;;7399651;19;19999;-80
2022/11/11 20:06:00;;;;;;;2.45;1.85;;;;;;;;;;7397490;19;20398;-82
2022/11/11 20:08:25;;;;;;;2.72;1.98;;;;;;;;;;7400841;19;20014;-82
2022/11/11 20:10:51;;;;;;;3.58;1.90;;;;;;;;;;7406473;19;20010;-81
2022/11/11 20:13:16;;;;;;;1.73;1.55;;;;;;;;;;7399315;19;20010;-82
2022/11/11 20:15:41;;;;;;;2.75;1.98;;;;;;;;;;7398108;19;20019;-82
2022/11/11 20:18:07;;;;;;;2.33;1.73;;;;;;;;;;7396631;19;20013;-81
2022/11/11 20:20:32;;;;;;;2.65;1.90;;;;;;;;;;7397209;19;20017;-82
2022/11/11 20:22:57;;;;;;;2.20;1.73;;;;;;;;;;7394015;19;20011;-82
2022/11/11 20:25:23;;;;;;;2.53;1.95;;;;;;;;;;7394863;19;20034;-82
2022/11/11 20:27:48;;;;;;;4.05;2.60;;;;;;;;;;7394763;19;21624;-83
2022/11/11 20:30:13;;;;;;;2.97;2.30;;;;;;;;;;7393622;19;20741;-83
2022/11/11 20:32:39;;;;;;;3.97;2.67;;;;;;;;;;7394317;19;20018;-83
2022/11/11 20:35:06;;;;;;;3.45;2.65;;;;;;;;;;7393827;19;20022;-83
2022/11/11 20:37:31;;;;;;;4.25;3.05;;;;;;;;;;7397389;19;20011;-82
2022/11/11 20:39:56;;;;;;;5.82;3.80;;;;;;;;;;7397260;19;20014;-82
2022/11/11 20:42:21;;;;;;;3.22;2.03;;;;;;;;;;7395806;19;20019;-81
2022/11/11 20:44:47;;;;;;;2.70;2.13;;;;;;;;;;7398207;19;20038;-82
2022/11/11 20:47:12;;;;;;;4.53;2.05;;;;;;;;;;7397395;19;20002;-82
2022/11/11 20:49:38;;;;;;;4.20;2.50;;;;;;;;;;7395649;19;20022;-82
2022/11/11 20:52:03;;;;;;;3.70;2.35;;;;;;;;;;7396696;19;20470;-82
2022/11/11 20:54:29;;;;;;;10.98;4.32;;;;;;;;;;7390493;19;20015;-82
2022/11/11 20:56:54;;;;;;;12.68;5.57;;;;;;;;;;7396614;19;20054;-81
2022/11/11 20:59:20;;;;;;;14.13;6.75;;;;;;;;;;7398849;19;20007;-81